createdAt,value
2022-08-26T00:00:22.465Z,20.27
2022-08-26T00:01:29.137Z,20.27
2022-08-26T00:02:26.841Z,20.35
2022-08-26T00:03:24.166Z,19.91
2022-08-26T00:04:23.631Z,19.98
2022-08-26T00:05:20.699Z,20.08
2022-08-26T00:06:20.787Z,20.09
2022-08-26T00:07:18.038Z,19.97
2022-08-26T00:08:15.490Z,19.98
2022-08-26T00:09:12.406Z,19.87
2022-08-26T00:10:10.036Z,19.06
2022-08-26T00:11:08.010Z,19.97
2022-08-26T00:12:05.634Z,19.98
2022-08-26T00:13:03.760Z,20.00
2022-08-26T00:14:00.773Z,20.09
2022-08-26T00:14:58.044Z,19.79
2022-08-26T00:15:55.012Z,20.27
2022-08-26T00:16:52.138Z,20.04
2022-08-26T00:17:53.844Z,19.22
2022-08-26T00:18:50.846Z,20.02
2022-08-26T00:19:47.597Z,19.99
2022-08-26T00:20:44.944Z,19.95
2022-08-26T00:21:41.709Z,19.88
2022-08-26T00:22:38.898Z,19.69
2022-08-26T00:23:36.339Z,19.81
2022-08-26T00:24:33.203Z,19.67
2022-08-26T00:25:30.164Z,19.51
2022-08-26T00:26:28.576Z,19.22
2022-08-26T00:27:26.384Z,19.86
2022-08-26T00:28:23.277Z,19.56
2022-08-26T00:29:21.358Z,19.59
2022-08-26T00:30:26.686Z,19.70
2022-08-26T00:31:23.461Z,19.75
2022-08-26T00:32:20.615Z,19.75
2022-08-26T00:33:20.139Z,19.41
2022-08-26T00:34:19.511Z,19.72
2022-08-26T00:35:16.637Z,19.70
2022-08-26T00:36:19.962Z,19.19
2022-08-26T00:37:18.357Z,19.70
2022-08-26T00:38:15.688Z,19.78
2022-08-26T00:39:12.511Z,19.70
2022-08-26T00:40:15.041Z,19.65
2022-08-26T00:41:12.694Z,19.66
2022-08-26T00:42:10.140Z,19.65
2022-08-26T00:43:09.479Z,19.70
2022-08-26T00:44:07.281Z,19.45
2022-08-26T00:45:11.558Z,19.47
2022-08-26T00:46:14.796Z,19.65
2022-08-26T00:47:31.345Z,19.15
2022-08-26T00:48:31.881Z,19.62
2022-08-26T00:49:38.917Z,19.60
2022-08-26T00:50:41.429Z,19.61
2022-08-26T00:51:46.246Z,19.58
2022-08-26T00:52:45.770Z,18.91
2022-08-26T00:53:59.249Z,19.41
2022-08-26T00:55:07.439Z,19.54
2022-08-26T00:56:16.970Z,19.40
2022-08-26T00:57:18.650Z,19.51
2022-08-26T00:58:16.228Z,19.51
2022-08-26T00:59:14.299Z,19.37
2022-08-26T01:00:20.987Z,19.65
2022-08-26T01:01:18.621Z,19.75
2022-08-26T01:02:21.487Z,19.76
2022-08-26T01:03:22.348Z,19.82
2022-08-26T01:04:23.417Z,19.91
2022-08-26T01:05:20.491Z,19.77
2022-08-26T01:06:17.886Z,19.87
2022-08-26T01:07:15.752Z,19.45
2022-08-26T01:08:12.794Z,19.74
2022-08-26T01:09:09.701Z,18.88
2022-08-26T01:10:11.885Z,19.76
2022-08-26T01:11:11.174Z,19.57
2022-08-26T01:12:08.058Z,19.29
2022-08-26T01:13:13.138Z,19.79
2022-08-26T01:14:12.375Z,19.98
2022-08-26T01:15:15.380Z,19.86
2022-08-26T01:16:15.953Z,19.81
2022-08-26T01:17:12.805Z,19.96
2022-08-26T01:18:11.333Z,19.90
2022-08-26T01:19:31.767Z,19.75
2022-08-26T01:20:28.564Z,19.79
2022-08-26T01:21:28.839Z,19.75
2022-08-26T01:22:42.589Z,19.63
2022-08-26T01:23:46.343Z,19.65
2022-08-26T01:24:43.910Z,19.47
2022-08-26T01:25:52.802Z,19.59
2022-08-26T01:26:49.995Z,19.38
2022-08-26T01:27:46.804Z,19.61
2022-08-26T01:28:50.630Z,19.32
2022-08-26T01:29:50.787Z,19.58
2022-08-26T01:30:52.956Z,19.18
2022-08-26T01:31:55.917Z,19.54
2022-08-26T01:32:57.473Z,19.44
2022-08-26T01:34:22.138Z,19.55
2022-08-26T01:35:20.467Z,19.58
2022-08-26T01:36:17.621Z,19.38
2022-08-26T01:37:19.440Z,19.48
2022-08-26T01:38:18.428Z,19.21
2022-08-26T01:39:15.281Z,17.02
2022-08-26T01:40:20.521Z,19.59
2022-08-26T01:41:19.923Z,19.48
2022-08-26T01:42:27.382Z,19.53
2022-08-26T01:43:29.403Z,18.82
2022-08-26T01:44:32.449Z,19.78
2022-08-26T01:45:35.763Z,19.84
2022-08-26T01:46:34.433Z,19.71
2022-08-26T01:47:35.798Z,19.99
2022-08-26T01:48:35.323Z,19.85
2022-08-26T01:49:35.450Z,19.47
2022-08-26T01:50:35.942Z,19.86
2022-08-26T01:51:38.636Z,20.23
2022-08-26T01:52:45.085Z,20.32
2022-08-26T01:53:47.517Z,20.29
2022-08-26T01:54:46.315Z,20.29
2022-08-26T01:55:52.119Z,20.26
2022-08-26T01:56:49.950Z,20.26
2022-08-26T01:57:56.357Z,20.29
2022-08-26T01:58:59.351Z,20.27
2022-08-26T02:00:01.176Z,20.09
2022-08-26T02:00:59.173Z,19.99
2022-08-26T02:01:56.913Z,19.74
2022-08-26T02:03:16.529Z,20.01
2022-08-26T02:04:33.208Z,20.24
2022-08-26T02:05:30.080Z,20.29
2022-08-26T02:06:27.181Z,20.06
2022-08-26T02:07:26.792Z,20.17
2022-08-26T02:08:31.089Z,20.07
2022-08-26T02:09:27.926Z,20.29
2022-08-26T02:10:27.587Z,19.94
2022-08-26T02:11:24.374Z,19.91
2022-08-26T02:12:23.698Z,19.56
2022-08-26T02:13:26.709Z,20.18
2022-08-26T02:14:33.249Z,19.51
2022-08-26T02:15:33.450Z,20.05
2022-08-26T02:16:39.935Z,20.24
2022-08-26T02:17:47.668Z,20.17
2022-08-26T02:18:47.014Z,20.05
2022-08-26T02:19:47.858Z,19.59
2022-08-26T02:20:44.990Z,19.65
2022-08-26T02:21:43.754Z,20.21
2022-08-26T02:22:41.490Z,20.16
2022-08-26T02:23:42.645Z,19.87
2022-08-26T02:24:53.510Z,20.15
2022-08-26T02:25:56.381Z,20.20
2022-08-26T02:26:53.325Z,20.05
2022-08-26T02:27:50.878Z,19.87
2022-08-26T02:29:02.253Z,19.62
2022-08-26T02:30:23.959Z,19.70
2022-08-26T02:31:23.669Z,19.60
2022-08-26T02:32:20.656Z,19.62
2022-08-26T02:33:17.477Z,19.09
2022-08-26T02:34:21.144Z,19.30
2022-08-26T02:35:20.550Z,19.51
2022-08-26T02:36:28.617Z,19.51
2022-08-26T02:37:29.630Z,19.57
2022-08-26T02:38:26.404Z,19.56
2022-08-26T02:39:23.422Z,19.53
2022-08-26T02:40:25.764Z,19.75
2022-08-26T02:41:23.073Z,19.81
2022-08-26T02:42:19.906Z,19.83
2022-08-26T02:43:17.003Z,19.64
2022-08-26T02:44:14.551Z,19.91
2022-08-26T02:45:11.305Z,19.17
2022-08-26T02:46:08.324Z,19.57
2022-08-26T02:47:07.850Z,19.81
2022-08-26T02:48:13.742Z,19.72
2022-08-26T02:49:10.699Z,19.58
2022-08-26T02:50:07.810Z,19.90
2022-08-26T02:51:05.042Z,19.86
2022-08-26T02:52:02.145Z,19.66
2022-08-26T02:52:58.911Z,19.60
2022-08-26T02:53:56.929Z,19.82
2022-08-26T02:54:53.941Z,19.42
2022-08-26T02:55:50.783Z,19.59
2022-08-26T02:56:48.213Z,19.04
2022-08-26T02:57:45.236Z,19.31
2022-08-26T02:58:42.064Z,19.47
2022-08-26T02:59:39.963Z,19.41
2022-08-26T03:00:38.539Z,19.48
2022-08-26T03:01:47.294Z,19.52
2022-08-26T03:02:44.513Z,19.66
2022-08-26T03:03:41.256Z,19.79
2022-08-26T03:04:39.948Z,19.84
2022-08-26T03:05:37.649Z,19.52
2022-08-26T03:06:34.411Z,19.64
2022-08-26T03:07:31.233Z,19.29
2022-08-26T03:08:28.024Z,19.73
2022-08-26T03:09:25.211Z,18.94
2022-08-26T03:10:22.990Z,19.12
2022-08-26T03:11:23.735Z,19.61
2022-08-26T03:12:21.389Z,19.87
2022-08-26T03:13:18.630Z,19.89
2022-08-26T03:14:15.456Z,19.94
2022-08-26T03:15:17.800Z,19.97
2022-08-26T03:16:16.438Z,19.70
2022-08-26T03:17:13.675Z,19.95
2022-08-26T03:18:11.046Z,19.87
2022-08-26T03:19:10.044Z,19.94
2022-08-26T03:20:09.935Z,19.86
2022-08-26T03:21:15.607Z,19.94
2022-08-26T03:22:12.349Z,19.76
2022-08-26T03:23:12.536Z,19.10
2022-08-26T03:24:10.834Z,19.87
2022-08-26T03:25:10.177Z,19.03
2022-08-26T03:26:10.955Z,19.75
2022-08-26T03:27:07.880Z,19.17
2022-08-26T03:28:04.658Z,18.55
2022-08-26T03:29:19.958Z,19.36
2022-08-26T03:30:36.265Z,19.49
2022-08-26T03:31:33.367Z,19.27
2022-08-26T03:32:30.136Z,19.52
2022-08-26T03:33:27.807Z,18.73
2022-08-26T03:34:24.713Z,19.54
2022-08-26T03:35:22.476Z,19.64
2022-08-26T03:36:19.529Z,19.56
2022-08-26T03:37:16.246Z,19.34
2022-08-26T03:38:15.442Z,19.57
2022-08-26T03:39:13.713Z,19.66
2022-08-26T03:40:11.620Z,19.64
2022-08-26T03:41:11.810Z,19.54
2022-08-26T03:42:08.564Z,19.63
2022-08-26T03:43:09.495Z,19.72
2022-08-26T03:44:09.011Z,19.00
2022-08-26T03:45:10.512Z,19.65
2022-08-26T03:46:12.335Z,19.78
2022-08-26T03:47:09.789Z,19.64
2022-08-26T03:48:07.615Z,19.81
2022-08-26T03:49:06.068Z,19.83
2022-08-26T03:50:05.428Z,19.49
2022-08-26T03:51:03.283Z,18.89
2022-08-26T03:52:00.774Z,19.76
2022-08-26T03:52:57.566Z,19.70
2022-08-26T03:53:54.554Z,19.72
2022-08-26T03:54:51.334Z,19.47
2022-08-26T03:55:48.473Z,19.45
2022-08-26T03:56:49.000Z,19.61
2022-08-26T03:57:45.872Z,19.55
2022-08-26T03:58:44.544Z,19.53
2022-08-26T03:59:43.026Z,18.76
2022-08-26T04:00:39.847Z,19.16
2022-08-26T04:01:36.715Z,19.26
2022-08-26T04:02:33.484Z,19.62
2022-08-26T04:03:49.293Z,19.62
2022-08-26T04:04:46.051Z,19.61
2022-08-26T04:05:43.324Z,19.58
2022-08-26T04:06:44.686Z,19.49
2022-08-26T04:07:45.374Z,19.41
2022-08-26T04:08:42.376Z,19.69
2022-08-26T04:09:39.097Z,19.68
2022-08-26T04:10:38.353Z,19.79
2022-08-26T04:11:39.376Z,19.77
2022-08-26T04:12:38.414Z,19.90
2022-08-26T04:13:35.149Z,20.06
2022-08-26T04:14:32.324Z,20.01
2022-08-26T04:15:29.306Z,20.01
2022-08-26T04:16:28.850Z,20.00
2022-08-26T04:17:26.260Z,19.75
2022-08-26T04:18:23.077Z,19.73
2022-08-26T04:19:21.727Z,19.79
2022-08-26T04:20:18.461Z,19.06
2022-08-26T04:21:15.495Z,18.87
2022-08-26T04:22:12.686Z,19.82
2022-08-26T04:23:09.483Z,19.80
2022-08-26T04:24:11.379Z,19.82
2022-08-26T04:25:09.769Z,19.95
2022-08-26T04:26:06.615Z,20.09
2022-08-26T04:27:04.500Z,19.99
2022-08-26T04:28:01.229Z,20.01
2022-08-26T04:28:57.961Z,19.90
2022-08-26T04:29:56.138Z,19.79
2022-08-26T04:30:52.952Z,19.81
2022-08-26T04:31:49.984Z,19.04
2022-08-26T04:32:52.398Z,19.84
2022-08-26T04:33:50.817Z,19.95
2022-08-26T04:34:47.700Z,19.49
2022-08-26T04:35:45.227Z,20.08
2022-08-26T04:36:45.171Z,20.10
2022-08-26T04:37:43.047Z,19.72
2022-08-26T04:38:40.210Z,20.03
2022-08-26T04:39:36.943Z,20.11
2022-08-26T04:40:33.931Z,19.84
2022-08-26T04:41:32.188Z,20.16
2022-08-26T04:42:29.897Z,20.18
2022-08-26T04:43:30.634Z,20.13
2022-08-26T04:44:29.754Z,19.87
2022-08-26T04:45:26.509Z,20.38
2022-08-26T04:46:24.695Z,20.29
2022-08-26T04:47:21.479Z,20.43
2022-08-26T04:48:18.195Z,20.39
2022-08-26T04:49:15.133Z,20.33
2022-08-26T04:50:11.990Z,20.37
2022-08-26T04:51:10.082Z,20.53
2022-08-26T04:52:06.895Z,20.00
2022-08-26T04:53:04.930Z,20.50
2022-08-26T04:54:03.193Z,20.33
2022-08-26T04:55:01.090Z,20.55
2022-08-26T04:55:58.029Z,20.52
2022-08-26T04:56:55.102Z,20.51
2022-08-26T04:57:53.025Z,20.53
2022-08-26T04:58:50.256Z,20.33
2022-08-26T04:59:47.041Z,20.63
2022-08-26T05:00:49.177Z,20.63
2022-08-26T05:01:49.380Z,20.63
2022-08-26T05:02:46.334Z,20.62
2022-08-26T05:03:43.251Z,19.72
2022-08-26T05:04:43.375Z,20.72
2022-08-26T05:05:44.575Z,19.85
2022-08-26T05:06:41.470Z,20.84
2022-08-26T05:07:38.228Z,20.82
2022-08-26T05:08:35.020Z,20.80
2022-08-26T05:09:32.113Z,20.23
2022-08-26T05:10:29.031Z,20.90
2022-08-26T05:11:25.826Z,20.82
2022-08-26T05:12:23.314Z,21.06
2022-08-26T05:13:21.946Z,20.94
2022-08-26T05:14:23.213Z,20.83
2022-08-26T05:15:20.097Z,21.02
2022-08-26T05:16:17.412Z,20.85
2022-08-26T05:17:15.051Z,20.89
2022-08-26T05:18:13.925Z,20.96
2022-08-26T05:19:11.304Z,21.03
2022-08-26T05:20:08.966Z,21.07
2022-08-26T05:21:06.877Z,21.17
2022-08-26T05:22:05.566Z,21.05
2022-08-26T05:23:02.337Z,21.02
2022-08-26T05:24:00.458Z,21.11
2022-08-26T05:24:57.181Z,21.09
2022-08-26T05:25:59.231Z,21.21
2022-08-26T05:26:57.423Z,21.22
2022-08-26T05:27:57.494Z,21.11
2022-08-26T05:28:56.247Z,21.36
2022-08-26T05:29:57.308Z,21.46
2022-08-26T05:30:55.658Z,21.32
2022-08-26T05:31:53.439Z,21.56
2022-08-26T05:32:55.307Z,21.49
2022-08-26T05:33:52.950Z,21.47
2022-08-26T05:34:53.930Z,21.46
2022-08-26T05:35:50.845Z,20.52
2022-08-26T05:36:48.585Z,21.51
2022-08-26T05:37:45.349Z,21.14
2022-08-26T05:38:44.058Z,21.55
2022-08-26T05:39:41.247Z,21.57
2022-08-26T05:40:46.578Z,21.31
2022-08-26T05:41:44.732Z,21.44
2022-08-26T05:42:41.846Z,21.43
2022-08-26T05:43:38.585Z,21.53
2022-08-26T05:44:55.829Z,21.52
2022-08-26T05:45:53.075Z,21.56
2022-08-26T05:46:49.872Z,21.65
2022-08-26T05:47:48.061Z,21.76
2022-08-26T05:48:45.265Z,21.55
2022-08-26T05:49:51.377Z,21.75
2022-08-26T05:50:51.939Z,21.83
2022-08-26T05:51:48.698Z,21.79
2022-08-26T05:52:50.723Z,21.66
2022-08-26T05:53:54.878Z,21.81
2022-08-26T05:54:52.322Z,21.89
2022-08-26T05:55:53.960Z,21.90
2022-08-26T05:56:51.543Z,22.01
2022-08-26T05:57:48.251Z,21.60
2022-08-26T05:58:46.294Z,22.04
2022-08-26T05:59:43.170Z,21.86
2022-08-26T06:00:40.706Z,21.64
2022-08-26T06:01:39.681Z,21.63
2022-08-26T06:02:36.485Z,21.52
2022-08-26T06:03:35.981Z,21.58
2022-08-26T06:04:32.838Z,21.94
2022-08-26T06:05:30.244Z,21.94
2022-08-26T06:06:32.845Z,21.93
2022-08-26T06:07:47.829Z,21.93
2022-08-26T06:08:45.417Z,22.06
2022-08-26T06:09:44.316Z,21.80
2022-08-26T06:10:47.981Z,21.94
2022-08-26T06:11:45.610Z,21.86
2022-08-26T06:12:42.633Z,22.10
2022-08-26T06:13:41.514Z,22.11
2022-08-26T06:14:38.806Z,22.14
2022-08-26T06:15:41.954Z,21.60
2022-08-26T06:16:43.786Z,22.15
2022-08-26T06:17:41.289Z,22.02
2022-08-26T06:18:41.418Z,22.25
2022-08-26T06:19:38.139Z,22.37
2022-08-26T06:20:43.579Z,22.43
2022-08-26T06:21:54.116Z,22.11
2022-08-26T06:23:10.098Z,21.76
2022-08-26T06:24:29.834Z,22.40
2022-08-26T06:25:38.972Z,22.38
2022-08-26T06:26:37.250Z,22.54
2022-08-26T06:27:34.000Z,22.60
2022-08-26T06:28:32.291Z,22.19
2022-08-26T06:29:33.112Z,22.71
2022-08-26T06:30:29.830Z,22.69
2022-08-26T06:31:27.620Z,22.56
2022-08-26T06:32:26.039Z,22.86
2022-08-26T06:33:24.707Z,22.72
2022-08-26T06:34:22.066Z,22.33
2022-08-26T06:35:18.913Z,22.54
2022-08-26T06:36:21.591Z,22.64
2022-08-26T06:37:18.306Z,22.46
2022-08-26T06:38:17.490Z,22.78
2022-08-26T06:39:17.025Z,22.90
2022-08-26T06:40:14.692Z,22.73
2022-08-26T06:41:12.315Z,22.87
2022-08-26T06:42:10.804Z,22.12
2022-08-26T06:43:10.212Z,22.17
2022-08-26T06:44:07.398Z,22.89
2022-08-26T06:45:05.769Z,23.06
2022-08-26T06:46:07.642Z,22.75
2022-08-26T06:47:06.190Z,22.89
2022-08-26T06:48:03.126Z,23.01
2022-08-26T06:49:00.323Z,23.01
2022-08-26T06:49:57.187Z,22.78
2022-08-26T06:51:05.067Z,22.82
2022-08-26T06:52:02.429Z,22.81
2022-08-26T06:52:59.220Z,22.84
2022-08-26T06:54:02.230Z,22.71
2022-08-26T06:55:00.110Z,22.81
2022-08-26T06:55:57.067Z,23.03
2022-08-26T06:56:56.812Z,23.11
2022-08-26T06:57:53.963Z,23.34
2022-08-26T06:58:52.274Z,23.38
2022-08-26T06:59:51.195Z,23.66
2022-08-26T07:00:48.060Z,23.73
2022-08-26T07:01:45.197Z,23.80
2022-08-26T07:02:47.045Z,23.12
2022-08-26T07:03:43.924Z,24.11
2022-08-26T07:04:44.455Z,24.15
2022-08-26T07:05:44.716Z,23.96
2022-08-26T07:06:48.809Z,24.03
2022-08-26T07:07:47.426Z,24.04
2022-08-26T07:08:44.163Z,23.54
2022-08-26T07:09:41.441Z,23.49
2022-08-26T07:10:38.235Z,23.97
2022-08-26T07:11:38.397Z,24.20
2022-08-26T07:12:36.948Z,24.03
2022-08-26T07:13:37.740Z,24.16
2022-08-26T07:14:35.175Z,24.39
2022-08-26T07:15:32.375Z,24.52
2022-08-26T07:16:29.987Z,24.85
2022-08-26T07:17:27.310Z,24.96
2022-08-26T07:18:24.101Z,24.83
2022-08-26T07:19:31.109Z,25.06
2022-08-26T07:20:28.805Z,24.98
2022-08-26T07:21:26.060Z,24.81
2022-08-26T07:22:22.899Z,24.88
2022-08-26T07:23:20.927Z,24.33
2022-08-26T07:24:19.239Z,24.35
2022-08-26T07:25:17.297Z,24.13
2022-08-26T07:26:28.555Z,23.94
2022-08-26T07:27:26.126Z,23.08
2022-08-26T07:28:23.402Z,24.12
2022-08-26T07:29:20.158Z,23.86
2022-08-26T07:30:21.696Z,24.13
2022-08-26T07:31:21.790Z,24.24
2022-08-26T07:32:20.468Z,24.23
2022-08-26T07:33:39.188Z,24.33
2022-08-26T07:34:39.586Z,23.73
2022-08-26T07:35:39.365Z,23.96
2022-08-26T07:36:37.193Z,24.06
2022-08-26T07:37:39.075Z,23.94
2022-08-26T07:38:38.721Z,23.43
2022-08-26T07:39:35.581Z,24.23
2022-08-26T07:40:34.483Z,24.21
2022-08-26T07:41:31.335Z,24.27
2022-08-26T07:42:28.694Z,24.24
2022-08-26T07:43:25.441Z,24.22
2022-08-26T07:44:22.748Z,23.67
2022-08-26T07:45:19.570Z,24.22
2022-08-26T07:46:26.973Z,24.15
2022-08-26T07:47:25.557Z,24.45
2022-08-26T07:48:24.057Z,24.42
2022-08-26T07:49:26.667Z,24.53
2022-08-26T07:50:49.294Z,24.52
2022-08-26T07:51:41.746Z,24.64
2022-08-26T07:52:39.073Z,24.19
2022-08-26T07:53:36.785Z,24.30
2022-08-26T07:54:33.697Z,24.60
2022-08-26T07:55:30.799Z,24.66
2022-08-26T07:56:29.575Z,24.50
2022-08-26T07:57:28.446Z,24.29
2022-08-26T07:58:25.210Z,24.57
2022-08-26T07:59:23.709Z,24.42
2022-08-26T08:00:21.228Z,24.61
2022-08-26T08:01:18.121Z,24.40
2022-08-26T08:02:15.542Z,24.60
2022-08-26T08:03:13.022Z,24.78
2022-08-26T08:04:11.285Z,24.91
2022-08-26T08:05:14.062Z,24.17
2022-08-26T08:06:11.029Z,24.84
2022-08-26T08:07:11.537Z,24.50
2022-08-26T08:08:27.325Z,24.96
2022-08-26T08:09:25.813Z,25.01
2022-08-26T08:10:25.650Z,24.75
2022-08-26T08:11:24.392Z,24.87
2022-08-26T08:12:21.426Z,25.11
2022-08-26T08:13:18.251Z,25.20
2022-08-26T08:14:16.018Z,25.14
2022-08-26T08:15:15.581Z,25.24
2022-08-26T08:16:12.748Z,25.29
2022-08-26T08:17:09.692Z,25.30
2022-08-26T08:18:06.866Z,24.97
2022-08-26T08:19:12.801Z,25.26
2022-08-26T08:20:10.762Z,25.04
2022-08-26T08:21:21.709Z,25.45
2022-08-26T08:22:23.624Z,25.19
2022-08-26T08:23:21.146Z,25.60
2022-08-26T08:24:17.981Z,25.34
2022-08-26T08:25:15.103Z,25.53
2022-08-26T08:26:12.025Z,25.03
2022-08-26T08:27:10.765Z,25.43
2022-08-26T08:28:07.762Z,25.56
2022-08-26T08:29:08.869Z,25.78
2022-08-26T08:30:07.509Z,25.50
2022-08-26T08:31:05.744Z,25.57
2022-08-26T08:32:03.725Z,24.76
2022-08-26T08:33:01.710Z,25.74
2022-08-26T08:34:18.306Z,25.91
2022-08-26T08:35:18.198Z,25.96
2022-08-26T08:36:20.374Z,26.00
2022-08-26T08:37:17.355Z,25.80
2022-08-26T08:38:14.372Z,25.90
2022-08-26T08:39:11.676Z,25.76
2022-08-26T08:40:09.786Z,25.96
2022-08-26T08:41:14.011Z,26.15
2022-08-26T08:42:29.404Z,26.19
2022-08-26T08:43:37.611Z,26.10
2022-08-26T08:44:41.055Z,26.04
2022-08-26T08:45:44.374Z,25.85
2022-08-26T08:46:49.061Z,25.81
2022-08-26T08:47:54.860Z,26.22
2022-08-26T08:48:57.037Z,26.04
2022-08-26T08:50:06.699Z,26.36
2022-08-26T08:51:28.606Z,26.38
2022-08-26T08:52:32.654Z,26.41
2022-08-26T08:53:43.152Z,26.49
2022-08-26T08:54:40.069Z,26.52
2022-08-26T08:55:53.093Z,26.54
2022-08-26T08:57:05.315Z,26.28
2022-08-26T08:58:10.090Z,26.24
2022-08-26T08:59:31.333Z,26.72
2022-08-26T09:00:49.794Z,25.94
2022-08-26T09:01:55.594Z,26.89
2022-08-26T09:03:08.582Z,26.68
2022-08-26T09:04:20.993Z,27.04
2022-08-26T09:05:31.655Z,27.15
2022-08-26T09:06:28.737Z,26.41
2022-08-26T09:07:39.967Z,26.77
2022-08-26T09:08:36.959Z,27.13
2022-08-26T09:09:37.757Z,26.77
2022-08-26T09:10:43.438Z,27.01
2022-08-26T09:11:40.966Z,26.66
2022-08-26T09:12:37.947Z,26.39
2022-08-26T09:13:37.611Z,26.27
2022-08-26T09:14:37.506Z,25.99
2022-08-26T09:15:49.028Z,26.89
2022-08-26T09:16:51.738Z,27.22
2022-08-26T09:18:00.506Z,27.29
2022-08-26T09:19:11.135Z,26.76
2022-08-26T09:20:47.209Z,27.07
2022-08-26T09:21:44.522Z,27.19
2022-08-26T09:22:44.310Z,26.92
2022-08-26T09:23:43.371Z,27.01
2022-08-26T09:24:41.881Z,26.94
2022-08-26T09:25:48.555Z,27.02
2022-08-26T09:26:48.112Z,26.88
2022-08-26T09:27:50.437Z,27.05
2022-08-26T09:28:55.317Z,26.86
2022-08-26T09:29:52.588Z,26.74
2022-08-26T09:31:13.161Z,26.97
2022-08-26T09:32:24.864Z,27.01
2022-08-26T09:33:29.623Z,27.06
2022-08-26T09:34:28.037Z,27.21
2022-08-26T09:35:32.398Z,26.21
2022-08-26T09:36:46.107Z,26.97
2022-08-26T09:38:51.814Z,26.86
2022-08-26T09:39:49.058Z,26.89
2022-08-26T09:40:59.881Z,25.95
2022-08-26T09:42:25.396Z,26.88
2022-08-26T09:43:23.121Z,26.69
2022-08-26T09:44:20.826Z,26.85
2022-08-26T09:45:28.334Z,26.63
2022-08-26T09:46:28.599Z,26.37
2022-08-26T09:47:31.781Z,26.61
2022-08-26T09:48:36.609Z,26.56
2022-08-26T09:49:36.026Z,26.92
2022-08-26T09:50:53.367Z,27.02
2022-08-26T09:52:20.591Z,26.95
2022-08-26T09:53:49.400Z,26.82
2022-08-26T09:55:11.560Z,26.74
2022-08-26T09:56:24.255Z,26.40
2022-08-26T09:57:31.557Z,26.35
2022-08-26T09:58:38.205Z,26.25
2022-08-26T09:59:35.352Z,26.63
2022-08-26T10:00:38.427Z,26.66
2022-08-26T10:01:41.834Z,26.21
2022-08-26T10:02:47.838Z,26.68
2022-08-26T10:03:47.127Z,26.76
2022-08-26T10:04:57.994Z,26.70
2022-08-26T10:06:07.044Z,26.85
2022-08-26T10:07:09.601Z,26.87
2022-08-26T10:08:27.468Z,27.10
2022-08-26T10:09:26.411Z,27.03
2022-08-26T10:10:40.740Z,26.84
2022-08-26T10:11:51.480Z,26.87
2022-08-26T10:12:58.562Z,26.82
2022-08-26T10:14:03.334Z,26.53
2022-08-26T10:15:09.570Z,26.93
2022-08-26T10:16:23.941Z,26.82
2022-08-26T10:17:43.270Z,26.93
2022-08-26T10:18:59.440Z,26.94
2022-08-26T10:20:22.416Z,27.03
2022-08-26T10:21:25.522Z,26.92
2022-08-26T10:22:50.839Z,26.92
2022-08-26T10:23:53.424Z,27.05
2022-08-26T10:25:02.740Z,27.16
2022-08-26T10:26:08.565Z,26.50
2022-08-26T10:27:21.610Z,27.36
2022-08-26T10:28:32.278Z,27.49
2022-08-26T10:29:46.430Z,27.56
2022-08-26T10:30:51.528Z,27.66
2022-08-26T10:32:27.726Z,27.42
2022-08-26T10:33:25.287Z,27.67
2022-08-26T10:34:22.374Z,27.43
2022-08-26T10:35:20.858Z,27.63
2022-08-26T10:37:05.195Z,27.60
2022-08-26T10:38:15.504Z,27.50
2022-08-26T10:39:46.662Z,26.61
2022-08-26T10:40:58.603Z,27.62
2022-08-26T10:42:01.502Z,27.66
2022-08-26T10:43:11.008Z,27.44
2022-08-26T10:44:13.786Z,26.98
2022-08-26T10:45:19.874Z,27.15
2022-08-26T10:46:22.485Z,27.19
2022-08-26T10:47:44.858Z,27.43
2022-08-26T10:49:13.383Z,27.51
2022-08-26T10:50:11.369Z,27.66
2022-08-26T10:51:12.859Z,27.62
2022-08-26T10:52:29.399Z,27.30
2022-08-26T10:53:40.050Z,27.54
2022-08-26T10:54:56.536Z,27.50
2022-08-26T10:56:19.100Z,27.54
2022-08-26T10:57:46.194Z,27.66
2022-08-26T10:59:15.039Z,27.67
2022-08-26T11:00:54.571Z,27.29
2022-08-26T11:02:10.984Z,27.78
2022-08-26T11:03:21.973Z,27.80
2022-08-26T11:04:37.789Z,27.95
2022-08-26T11:05:34.977Z,27.90
2022-08-26T11:06:31.939Z,27.91
2022-08-26T11:07:46.810Z,27.72
2022-08-26T11:09:02.041Z,27.96
2022-08-26T11:10:16.710Z,27.94
2022-08-26T11:11:39.556Z,27.67
2022-08-26T11:12:36.231Z,27.79
2022-08-26T11:14:00.851Z,27.76
2022-08-26T11:14:59.099Z,27.85
2022-08-26T11:15:59.171Z,28.05
2022-08-26T11:17:00.240Z,27.96
2022-08-26T11:18:08.939Z,27.37
2022-08-26T11:19:09.245Z,27.84
2022-08-26T11:20:13.501Z,27.90
2022-08-26T11:21:49.545Z,28.20
2022-08-26T11:22:48.284Z,28.31
2022-08-26T11:23:50.476Z,27.49
2022-08-26T11:24:53.605Z,28.18
2022-08-26T11:25:57.201Z,27.98
2022-08-26T11:26:56.199Z,28.26
2022-08-26T11:27:57.286Z,28.31
2022-08-26T11:28:54.059Z,28.41
2022-08-26T11:30:03.964Z,28.38
2022-08-26T11:31:01.729Z,28.29
2022-08-26T11:32:01.279Z,28.12
2022-08-26T11:33:00.122Z,28.21
2022-08-26T11:34:01.965Z,28.21
2022-08-26T11:35:02.537Z,28.21
2022-08-26T11:35:59.341Z,28.29
2022-08-26T11:36:58.007Z,28.43
2022-08-26T11:37:58.927Z,27.19
2022-08-26T11:38:56.662Z,27.81
2022-08-26T11:39:57.185Z,28.16
2022-08-26T11:41:20.869Z,28.09
2022-08-26T11:42:46.397Z,28.42
2022-08-26T11:43:45.338Z,28.24
2022-08-26T11:44:48.699Z,28.27
2022-08-26T11:46:01.448Z,28.54
2022-08-26T11:47:01.050Z,28.71
2022-08-26T11:47:57.845Z,28.86
2022-08-26T11:49:05.258Z,28.85
2022-08-26T11:50:09.450Z,28.03
2022-08-26T11:51:11.196Z,28.75
2022-08-26T11:52:09.451Z,28.65
2022-08-26T11:53:06.592Z,28.64
2022-08-26T11:54:18.331Z,28.67
2022-08-26T11:55:41.922Z,28.56
2022-08-26T11:56:42.222Z,28.69
2022-08-26T11:57:49.401Z,28.66
2022-08-26T11:58:49.053Z,28.48
2022-08-26T11:59:46.577Z,28.59
2022-08-26T12:00:46.341Z,28.39
2022-08-26T12:01:49.056Z,28.59
2022-08-26T12:02:45.957Z,28.50
2022-08-26T12:03:52.064Z,28.34
2022-08-26T12:04:52.351Z,28.26
2022-08-26T12:05:52.398Z,28.45
2022-08-26T12:06:52.393Z,28.36
2022-08-26T12:07:53.041Z,28.37
2022-08-26T12:08:50.396Z,28.26
2022-08-26T12:09:55.026Z,28.13
2022-08-26T12:11:03.553Z,28.36
2022-08-26T12:12:25.226Z,28.15
2022-08-26T12:13:26.348Z,28.22
2022-08-26T12:14:27.671Z,27.54
2022-08-26T12:15:26.865Z,28.39
2022-08-26T12:16:29.929Z,28.30
2022-08-26T12:17:28.175Z,28.22
2022-08-26T12:18:33.603Z,28.00
2022-08-26T12:19:33.977Z,28.18
2022-08-26T12:20:48.547Z,28.28
2022-08-26T12:21:48.970Z,28.20
2022-08-26T12:22:48.099Z,27.97
2022-08-26T12:23:47.806Z,28.25
2022-08-26T12:24:55.222Z,28.38
2022-08-26T12:26:02.455Z,28.38
2022-08-26T12:27:10.260Z,28.00
2022-08-26T12:28:07.305Z,28.35
2022-08-26T12:29:19.793Z,28.37
2022-08-26T12:30:23.603Z,28.26
2022-08-26T12:31:28.265Z,28.25
2022-08-26T12:32:25.011Z,28.14
2022-08-26T12:33:24.280Z,28.34
2022-08-26T12:34:21.197Z,28.23
2022-08-26T12:35:20.947Z,28.25
2022-08-26T12:36:24.899Z,28.31
2022-08-26T12:37:22.247Z,28.31
2022-08-26T12:38:20.127Z,28.16
2022-08-26T12:39:36.567Z,28.27
2022-08-26T12:40:44.438Z,28.33
2022-08-26T12:41:56.366Z,28.39
2022-08-26T12:42:53.417Z,28.40
2022-08-26T12:43:50.138Z,28.47
2022-08-26T12:44:58.418Z,27.73
2022-08-26T12:46:00.548Z,28.29
2022-08-26T12:47:03.799Z,28.30
2022-08-26T12:48:08.277Z,28.16
2022-08-26T12:49:05.177Z,28.43
2022-08-26T12:50:10.953Z,28.23
2022-08-26T12:51:22.095Z,27.00
2022-08-26T12:52:30.243Z,27.96
2022-08-26T12:53:28.714Z,28.45
2022-08-26T12:54:46.206Z,28.36
2022-08-26T12:55:50.694Z,28.30
2022-08-26T12:56:47.495Z,27.67
2022-08-26T12:57:48.796Z,28.17
2022-08-26T12:59:05.422Z,28.40
2022-08-26T13:00:26.282Z,28.39
2022-08-26T13:01:25.620Z,28.23
2022-08-26T13:02:36.167Z,28.27
2022-08-26T13:03:38.653Z,28.18
2022-08-26T13:04:44.119Z,28.14
2022-08-26T13:05:42.311Z,28.30
2022-08-26T13:06:40.632Z,28.31
2022-08-26T13:07:38.447Z,28.04
2022-08-26T13:08:41.699Z,28.25
2022-08-26T13:09:39.228Z,28.40
2022-08-26T13:10:39.208Z,28.50
2022-08-26T13:11:42.153Z,28.37
2022-08-26T13:12:41.013Z,28.34
2022-08-26T13:13:39.050Z,28.31
2022-08-26T13:14:35.893Z,28.45
2022-08-26T13:15:32.638Z,28.21
2022-08-26T13:16:30.899Z,28.42
2022-08-26T13:17:29.933Z,28.43
2022-08-26T13:18:26.683Z,28.05